Time;durP1;ratioP1;P1;durP2;ratioP2;P2;SDS_P1;SDS_P2;PMS_P1;PMS_P2;Temp;Humidity;BMP_temperature;BMP_pressure;BME280_temperature;BME280_humidity;BME280_pressure;Samples;Min_cycle;Max_cycle;Signal;HPM_P1;HPM_P2
2023/06/08 00:00:16;;;;;;;8.73;4.47;;;;;;;16.31;80.48;101133.69;2082683;28;20080;-82
2023/06/08 00:01:18;;;;;;;6.43;4.40;;;;;;;16.31;80.20;101131.00;2084703;28;20169;-82
2023/06/08 00:02:23;;;;;;;7.05;4.22;;;;;;;16.35;80.11;101136.59;2089927;28;20028;-81
2023/06/08 00:03:26;;;;;;;6.63;4.28;;;;;;;16.36;80.03;101133.59;2083357;28;20022;-81
2023/06/08 00:04:30;;;;;;;10.35;4.60;;;;;;;16.37;79.90;101139.84;2098764;28;20847;-81
2023/06/08 00:05:43;;;;;;;10.20;5.22;;;;;;;16.32;79.87;101131.78;2082809;28;20216;-81
2023/06/08 00:06:45;;;;;;;8.93;4.47;;;;;;;16.34;79.85;101138.53;2077424;28;20959;-80
2023/06/08 00:07:48;;;;;;;9.60;4.70;;;;;;;16.35;80.00;101131.19;2082720;28;20034;-80
2023/06/08 00:08:50;;;;;;;9.82;5.13;;;;;;;16.31;79.73;101125.56;2090461;28;20029;-79
2023/06/08 00:09:52;;;;;;;8.52;4.93;;;;;;;16.24;80.11;101124.38;2099239;28;20875;-79
2023/06/08 00:10:54;;;;;;;11.23;4.85;;;;;;;16.14;79.99;101125.34;2098646;28;20049;-80
2023/06/08 00:11:58;;;;;;;8.75;5.00;;;;;;;16.04;80.26;101129.06;2099203;28;20307;-78
2023/06/08 00:13:00;;;;;;;8.50;5.00;;;;;;;15.98;80.64;101128.41;2107587;28;20797;-83
2023/06/08 00:14:03;;;;;;;8.68;4.82;;;;;;;15.96;80.58;101127.88;2116034;28;20028;-83
2023/06/08 00:15:07;;;;;;;8.45;5.20;;;;;;;15.93;80.91;101127.69;2098645;28;20029;-83
2023/06/08 00:16:09;;;;;;;11.90;5.53;;;;;;;15.95;80.98;101123.56;2090976;28;20029;-82
2023/06/08 00:17:11;;;;;;;9.98;5.47;;;;;;;15.97;80.92;101134.09;2082276;28;20191;-81
2023/06/08 00:18:13;;;;;;;8.25;4.75;;;;;;;15.96;80.86;101127.09;2082058;28;20025;-84
2023/06/08 00:19:15;;;;;;;9.95;5.68;;;;;;;15.95;80.70;101123.56;2090554;28;20025;-82
2023/06/08 00:20:18;;;;;;;11.50;5.18;;;;;;;15.92;80.97;101120.63;2107250;28;20031;-83
2023/06/08 00:21:26;;;;;;;9.10;5.10;;;;;;;15.93;81.02;101125.78;2116161;28;20031;-84
2023/06/08 00:22:29;;;;;;;8.55;4.18;;;;;;;15.93;80.75;101119.53;2089924;28;20029;-80
2023/06/08 00:23:30;;;;;;;6.65;4.53;;;;;;;15.88;80.62;101120.44;2083289;28;20064;-81
2023/06/08 00:24:33;;;;;;;9.48;5.43;;;;;;;15.87;80.71;101126.97;2090307;28;20025;-82
2023/06/08 00:25:34;;;;;;;8.38;5.10;;;;;;;15.84;80.92;101119.44;2082364;28;20748;-79
2023/06/08 00:26:40;;;;;;;7.80;4.47;;;;;;;15.82;81.08;101121.63;2091044;28;20927;-79
2023/06/08 00:27:43;;;;;;;8.27;4.78;;;;;;;15.84;81.10;101124.84;2098699;28;20025;-79
2023/06/08 00:28:48;;;;;;;10.73;5.10;;;;;;;15.82;81.28;101120.84;2093481;28;20973;-83
2023/06/08 00:29:50;;;;;;;8.65;4.63;;;;;;;15.79;81.16;101121.44;2080482;28;20126;-82
2023/06/08 00:30:52;;;;;;;17.80;6.25;;;;;;;15.81;81.26;101120.03;2081121;28;20233;-82
2023/06/08 00:31:54;;;;;;;8.52;5.25;;;;;;;15.84;81.40;101122.16;2080963;28;20108;-82
2023/06/08 00:32:56;;;;;;;7.78;4.90;;;;;;;15.85;80.90;101118.31;2072215;28;20026;-82
2023/06/08 00:33:58;;;;;;;7.55;4.70;;;;;;;15.83;81.00;101114.31;2073161;28;20170;-82
2023/06/08 00:35:00;;;;;;;12.73;5.43;;;;;;;15.80;80.81;101114.94;2080737;28;21073;-82
2023/06/08 00:36:04;;;;;;;8.77;4.82;;;;;;;15.79;80.87;101118.72;2081361;28;20030;-83
2023/06/08 00:37:08;;;;;;;8.85;5.30;;;;;;;15.77;81.22;101119.03;2089531;28;20916;-81
2023/06/08 00:38:10;;;;;;;7.45;4.57;;;;;;;15.77;81.16;101113.59;2080937;28;20864;-81
2023/06/08 00:39:16;;;;;;;9.63;5.00;;;;;;;15.78;81.35;101112.50;2080802;28;20158;-79
2023/06/08 00:40:18;;;;;;;7.45;4.95;;;;;;;15.78;81.36;101115.22;2064938;28;20043;-77
2023/06/08 00:41:19;;;;;;;10.57;5.18;;;;;;;15.79;81.15;101113.28;2072555;28;20035;-79
2023/06/08 00:42:21;;;;;;;10.98;5.13;;;;;;;15.75;81.20;101116.59;2080532;28;20111;-79
2023/06/08 00:43:23;;;;;;;9.57;4.70;;;;;;;15.79;81.32;101119.50;2089006;28;20151;-81
2023/06/08 00:44:25;;;;;;;10.40;4.97;;;;;;;15.82;81.26;101116.22;2088890;28;20029;-80
2023/06/08 00:45:26;;;;;;;8.15;4.47;;;;;;;15.81;80.81;101120.03;2072530;28;21220;-82
2023/06/08 00:46:31;;;;;;;7.65;4.60;;;;;;;15.79;81.11;101114.09;2089119;28;20140;-80
2023/06/08 00:47:33;;;;;;;7.78;5.20;;;;;;;15.76;80.86;101120.13;2080704;28;21025;-82
2023/06/08 00:48:35;;;;;;;7.10;4.75;;;;;;;15.80;81.04;101114.94;2089552;28;20115;-82
2023/06/08 00:49:38;;;;;;;9.38;4.78;;;;;;;15.81;81.08;101113.81;2080350;28;20030;-83
2023/06/08 00:50:41;;;;;;;9.25;4.55;;;;;;;15.80;81.08;101114.94;2072885;28;20042;-83
2023/06/08 00:51:44;;;;;;;9.63;5.07;;;;;;;15.79;80.35;101110.59;2072616;28;21335;-83
2023/06/08 00:52:49;;;;;;;8.38;4.80;;;;;;;15.73;80.26;101108.00;2080842;28;20041;-82
2023/06/08 00:53:56;;;;;;;8.55;4.80;;;;;;;15.67;80.36;101116.50;2090110;28;20120;-82
2023/06/08 00:55:00;;;;;;;7.95;4.88;;;;;;;15.61;80.57;101109.53;2081041;28;20180;-82
2023/06/08 00:56:02;;;;;;;9.93;4.88;;;;;;;15.58;80.53;101110.94;2081365;28;20160;-81
2023/06/08 00:57:05;;;;;;;10.48;4.82;;;;;;;15.51;81.20;101102.41;2080471;28;20049;-81
2023/06/08 00:58:13;;;;;;;9.55;4.72;;;;;;;15.53;81.22;101106.41;2073138;28;20861;-80
2023/06/08 00:59:17;;;;;;;8.82;4.75;;;;;;;15.50;81.26;101112.41;2083346;28;20127;-81
2023/06/08 01:00:22;;;;;;;10.77;5.40;;;;;;;15.48;81.36;101106.50;2073683;28;20218;-83
2023/06/08 01:01:25;;;;;;;9.30;5.03;;;;;;;15.48;81.47;101113.84;2081771;28;20140;-82
2023/06/08 01:02:26;;;;;;;8.80;4.65;;;;;;;15.47;81.36;101101.38;2097879;28;20931;-80
2023/06/08 01:03:33;;;;;;;12.68;5.05;;;;;;;15.47;81.46;101107.59;2098656;28;20155;-83
2023/06/08 01:04:36;;;;;;;9.93;5.20;;;;;;;15.46;81.34;101111.41;2099742;28;20124;-83
2023/06/08 01:05:38;;;;;;;10.90;4.88;;;;;;;15.46;81.16;101111.41;2090475;28;20038;-80
2023/06/08 01:06:46;;;;;;;9.70;5.05;;;;;;;15.43;81.06;101106.59;2090420;28;20768;-78
2023/06/08 01:08:15;;;;;;;8.18;4.85;;;;;;;15.39;81.32;101105.56;2091189;28;20029;-79
2023/06/08 01:09:40;;;;;;;8.98;5.05;;;;;;;15.37;81.53;101104.25;2068514;28;20900;-82
2023/06/08 01:10:54;;;;;;;8.38;4.97;;;;;;;15.36;81.62;101106.16;2084075;28;20115;-82
2023/06/08 01:12:23;;;;;;;9.02;4.95;;;;;;;15.33;81.36;101104.06;2083192;28;20034;-81
2023/06/08 01:13:45;;;;;;;8.10;4.70;;;;;;;15.31;81.77;101103.53;2077303;28;20152;-82
2023/06/08 01:14:54;;;;;;;9.23;5.00;;;;;;;15.28;81.87;101098.72;2087994;28;20856;-79
2023/06/08 01:16:00;;;;;;;;;;;;;;;15.29;81.96;101100.34;2093351;28;20038;-80
2023/06/08 01:17:09;;;;;;;10.80;4.85;;;;;;;15.25;81.98;101104.72;2100110;28;19928;-79
2023/06/08 01:18:10;;;;;;;9.70;4.95;;;;;;;15.26;81.67;101106.34;2084710;28;20137;-82
2023/06/08 01:19:17;;;;;;;8.40;4.72;;;;;;;15.28;81.75;101107.63;2083788;28;20021;-79
2023/06/08 01:20:49;;;;;;;8.20;4.88;;;;;;;15.28;81.95;101101.41;2091724;28;20835;-80
2023/06/08 01:22:13;;;;;;;9.70;5.50;;;;;;;15.28;81.99;101099.50;2087812;28;20022;-81
2023/06/08 01:23:44;;;;;;;9.15;5.40;;;;;;;15.33;82.36;101101.34;2097816;28;20032;-80
2023/06/08 01:24:52;;;;;;;8.90;4.95;;;;;;;15.33;82.42;101101.34;2091606;28;20856;-81
2023/06/08 01:25:56;;;;;;;8.35;4.85;;;;;;;15.33;82.39;101101.34;2084590;28;20042;-80
2023/06/08 01:26:57;;;;;;;7.60;4.90;;;;;;;15.34;82.32;101097.53;2083066;28;20072;-80
2023/06/08 01:28:12;;;;;;;8.68;5.05;;;;;;;15.35;82.15;101103.75;2090855;28;20021;-80
2023/06/08 01:29:15;;;;;;;9.98;5.00;;;;;;;15.36;81.99;101098.03;2080689;28;20046;-80
2023/06/08 01:30:17;;;;;;;8.55;5.07;;;;;;;15.37;82.24;101098.84;2075605;28;20030;-80
2023/06/08 01:31:19;;;;;;;11.77;5.10;;;;;;;15.36;82.08;101097.25;2083609;28;20026;-80
2023/06/08 01:32:21;;;;;;;10.63;5.10;;;;;;;15.36;82.41;101105.38;2075263;28;20118;-80
2023/06/08 01:33:26;;;;;;;9.32;5.30;;;;;;;15.37;82.55;101101.56;2082992;28;21023;-80
2023/06/08 01:34:29;;;;;;;8.32;4.82;;;;;;;15.38;82.52;101103.94;2075634;28;20714;-80
2023/06/08 01:35:31;;;;;;;12.88;5.30;;;;;;;15.38;82.97;101092.31;2059198;28;20027;-80
2023/06/08 01:36:56;;;;;;;9.02;5.00;;;;;;;15.43;82.90;101092.22;2067255;28;20158;-81
2023/06/08 01:38:03;;;;;;;13.23;5.15;;;;;;;15.48;82.71;101087.53;2064749;28;20060;-80
2023/06/08 01:39:36;;;;;;;9.70;4.90;;;;;;;15.46;82.13;101092.44;2068772;28;20042;-80
2023/06/08 01:40:45;;;;;;;9.52;5.32;;;;;;;15.40;82.18;101096.34;2083818;28;20036;-80
2023/06/08 01:41:51;;;;;;;8.40;5.38;;;;;;;15.37;82.22;101096.94;2076154;28;20984;-81
2023/06/08 01:42:53;;;;;;;8.18;4.93;;;;;;;15.39;82.49;101092.03;2084260;28;20038;-81
2023/06/08 01:43:57;;;;;;;9.57;5.63;;;;;;;15.43;82.39;101094.94;2082927;28;20849;-81
2023/06/08 01:45:09;;;;;;;8.32;5.18;;;;;;;15.47;82.57;101095.94;2083695;28;20045;-81
2023/06/08 01:46:13;;;;;;;10.18;5.10;;;;;;;15.46;82.34;101094.34;2091137;28;20828;-81
2023/06/08 01:47:16;;;;;;;9.43;4.97;;;;;;;15.45;82.14;101096.25;2091949;28;20022;-81
2023/06/08 01:48:20;;;;;;;12.35;5.22;;;;;;;15.46;82.24;101095.16;2082846;28;20157;-81
2023/06/08 01:49:30;;;;;;;10.38;5.30;;;;;;;15.46;82.40;101088.94;2075381;28;20040;-82
2023/06/08 01:50:33;;;;;;;8.65;5.63;;;;;;;15.45;82.53;101092.75;2076963;28;20102;-82
2023/06/08 01:51:36;;;;;;;8.55;5.20;;;;;;;15.45;83.03;101098.97;2083109;28;20152;-82
2023/06/08 01:52:41;;;;;;;12.25;6.30;;;;;;;15.45;83.63;101093.56;2075276;28;20766;-82
2023/06/08 01:53:43;;;;;;;11.52;6.10;;;;;;;15.44;84.21;101097.34;2067949;28;20118;-82
2023/06/08 01:54:46;;;;;;;10.40;6.05;;;;;;;15.44;84.27;101089.22;2074983;28;20082;-81
2023/06/08 01:56:07;;;;;;;12.98;6.47;;;;;;;15.42;85.22;101099.56;2091134;28;20097;-81
2023/06/08 01:57:08;;;;;;;12.40;5.75;;;;;;;15.39;85.71;101086.59;2081232;28;20041;-81
2023/06/08 01:58:10;;;;;;;14.70;6.32;;;;;;;15.42;86.17;101094.16;2083367;28;20232;-81
2023/06/08 01:59:11;;;;;;;12.38;5.70;;;;;;;15.45;86.03;101096.25;2082785;28;20042;-80
2023/06/08 02:00:20;;;;;;;11.85;5.55;;;;;;;15.45;85.77;101098.97;2083364;28;20049;-83
2023/06/08 02:01:24;;;;;;;10.02;5.60;;;;;;;15.47;85.91;101095.94;2075806;28;20912;-82
2023/06/08 02:02:26;;;;;;;10.02;5.93;;;;;;;15.51;85.72;101095.06;2083562;28;20041;-83
2023/06/08 02:03:30;;;;;;;7.80;5.18;;;;;;;15.58;85.91;101091.16;2075081;28;20025;-82
2023/06/08 02:04:33;;;;;;;11.10;5.53;;;;;;;15.60;85.38;101095.16;2075517;28;20034;-82
2023/06/08 02:05:35;;;;;;;8.70;5.45;;;;;;;15.61;85.23;101098.69;2083024;28;20026;-83
2023/06/08 02:06:40;;;;;;;9.80;5.78;;;;;;;15.64;85.16;101096.19;2083379;28;20523;-82
2023/06/08 02:07:42;;;;;;;9.07;5.97;;;;;;;15.69;84.94;101098.03;2074802;28;20150;-82
2023/06/08 02:08:47;;;;;;;10.07;5.25;;;;;;;15.68;84.59;101096.44;2067219;28;20051;-83
2023/06/08 02:09:49;;;;;;;7.45;5.30;;;;;;;15.64;84.47;101096.19;2059151;28;20078;-82
2023/06/08 02:10:51;;;;;;;8.18;5.35;;;;;;;15.61;83.99;101101.41;2074234;28;20825;-81
2023/06/08 02:12:08;;;;;;;9.90;5.30;;;;;;;15.52;83.85;101096.66;2075045;28;20088;-81
2023/06/08 02:13:10;;;;;;;12.15;5.07;;;;;;;15.48;83.79;101101.09;2068593;28;20778;-80
2023/06/08 02:14:14;;;;;;;8.32;5.85;;;;;;;15.52;83.85;101098.59;2067300;28;20062;-80
2023/06/08 02:15:17;;;;;;;9.38;5.25;;;;;;;15.49;83.29;101099.19;2066616;28;20070;-81
2023/06/08 02:16:19;;;;;;;8.45;4.88;;;;;;;15.52;83.77;101102.09;2075198;28;20039;-80
2023/06/08 02:17:26;;;;;;;11.13;5.57;;;;;;;15.50;83.54;101107.00;2074948;28;20070;-80
2023/06/08 02:18:30;;;;;;;8.93;5.22;;;;;;;15.42;83.30;101107.69;2085505;28;20112;-80
2023/06/08 02:19:32;;;;;;;9.27;5.60;;;;;;;15.36;83.63;101100.75;2091092;28;20036;-81
2023/06/08 02:20:34;;;;;;;9.85;5.65;;;;;;;15.28;83.51;101104.94;2074705;28;20029;-80
2023/06/08 02:21:36;;;;;;;8.18;4.93;;;;;;;15.23;83.50;101096.91;2074599;28;20031;-80
2023/06/08 02:22:38;;;;;;;8.98;5.18;;;;;;;15.22;83.69;101097.19;2075116;28;20850;-80
2023/06/08 02:23:40;;;;;;;8.68;5.22;;;;;;;15.23;83.87;101090.69;2082787;28;20038;-82
2023/06/08 02:24:42;;;;;;;10.38;5.50;;;;;;;15.22;84.27;101092.56;2091620;28;20041;-82
2023/06/08 02:25:45;;;;;;;8.93;4.70;;;;;;;15.23;84.04;101096.09;2081630;28;20824;-82
2023/06/08 02:26:48;;;;;;;10.35;5.43;;;;;;;15.22;84.28;101094.47;2074934;28;20099;-82
2023/06/08 02:27:53;;;;;;;7.90;4.95;;;;;;;15.21;84.50;101101.81;2087358;28;20029;-82
2023/06/08 02:28:57;;;;;;;9.93;5.70;;;;;;;15.21;84.50;101090.16;2075917;28;20142;-82
2023/06/08 02:30:02;;;;;;;11.70;6.20;;;;;;;15.25;84.54;101088.47;2075814;28;20031;-82
2023/06/08 02:31:07;;;;;;;8.30;5.57;;;;;;;15.27;84.79;101091.69;2091172;28;20036;-82
2023/06/08 02:32:12;;;;;;;10.63;6.35;;;;;;;15.28;84.99;101093.28;2084083;28;20986;-82
2023/06/08 02:33:15;;;;;;;15.10;5.43;;;;;;;15.31;85.04;101090.00;2083392;28;20153;-82
2023/06/08 02:34:21;;;;;;;9.85;5.50;;;;;;;15.32;84.99;101097.03;2082911;28;20033;-82
2023/06/08 02:35:25;;;;;;;11.02;5.30;;;;;;;15.34;85.08;101094.81;2075697;28;20872;-82
2023/06/08 02:36:31;;;;;;;10.82;5.70;;;;;;;15.34;85.12;101089.41;2074770;28;20027;-82
2023/06/08 02:37:33;;;;;;;9.57;5.78;;;;;;;15.35;84.88;101082.88;2083977;28;20065;-82
2023/06/08 02:38:39;;;;;;;10.18;5.43;;;;;;;15.41;85.38;101086.31;2074773;28;20038;-82
2023/06/08 02:39:44;;;;;;;11.38;5.80;;;;;;;15.44;85.38;101078.38;2083846;28;20030;-82
2023/06/08 02:40:48;;;;;;;10.93;5.53;;;;;;;15.54;85.51;101080.09;2075151;28;20122;-82
2023/06/08 02:41:51;;;;;;;9.68;5.80;;;;;;;15.55;85.41;101086.34;2067056;28;20844;-81
2023/06/08 02:42:52;;;;;;;11.43;5.75;;;;;;;15.55;85.59;101080.91;2066228;28;20994;-81
2023/06/08 02:43:56;;;;;;;10.05;5.82;;;;;;;15.57;85.50;101081.41;2076172;28;20211;-80
2023/06/08 02:44:58;;;;;;;9.43;5.88;;;;;;;15.61;85.47;101087.84;2082837;28;20065;-81
2023/06/08 02:46:01;;;;;;;9.18;5.35;;;;;;;15.64;85.84;101087.25;2075181;28;20050;-81
2023/06/08 02:47:06;;;;;;;10.15;5.00;;;;;;;15.65;85.83;101086.16;2082891;28;20863;-81
2023/06/08 02:48:08;;;;;;;10.60;6.18;;;;;;;15.65;85.69;101086.16;2083417;28;20053;-81
2023/06/08 02:49:10;;;;;;;9.63;5.82;;;;;;;15.66;85.68;101085.03;2082284;28;20117;-81
2023/06/08 02:50:12;;;;;;;8.27;5.95;;;;;;;15.69;85.78;101084.47;2083454;28;20049;-80
2023/06/08 02:51:16;;;;;;;9.77;5.68;;;;;;;15.70;85.72;101086.09;2082502;28;20033;-81
2023/06/08 02:52:18;;;;;;;9.25;5.05;;;;;;;15.69;85.59;101081.75;2067202;28;20062;-81
2023/06/08 02:53:19;;;;;;;12.38;5.43;;;;;;;15.71;85.66;101088.50;2066551;28;20885;-81
2023/06/08 02:54:22;;;;;;;11.35;5.60;;;;;;;15.72;85.96;101092.00;2074558;28;20808;-81
2023/06/08 02:55:28;;;;;;;8.57;4.85;;;;;;;15.75;86.00;101091.41;2074847;28;20035;-81
2023/06/08 02:56:30;;;;;;;7.68;5.10;;;;;;;15.75;85.45;101091.41;2091264;28;20030;-81
2023/06/08 02:57:32;;;;;;;10.00;5.75;;;;;;;15.76;85.79;101090.28;2074198;28;20128;-81
2023/06/08 02:58:46;;;;;;;8.70;5.30;;;;;;;15.80;85.48;101083.19;2069818;28;20050;-83
2023/06/08 02:59:49;;;;;;;9.57;6.00;;;;;;;15.80;85.95;101085.91;2075554;28;20038;-82
2023/06/08 03:00:55;;;;;;;10.82;5.60;;;;;;;15.80;85.91;101085.91;2067675;28;20780;-82
2023/06/08 03:02:14;;;;;;;11.75;6.63;;;;;;;15.85;85.87;101080.34;2082258;28;20042;-82
2023/06/08 03:03:22;;;;;;;9.00;5.93;;;;;;;15.88;86.00;101087.88;2077346;28;20148;-82
2023/06/08 03:04:28;;;;;;;8.98;6.03;;;;;;;15.90;86.06;101093.81;2075485;28;20906;-82
2023/06/08 03:05:34;;;;;;;7.13;5.22;;;;;;;15.93;86.33;101087.00;2076816;28;20069;-82
2023/06/08 03:06:44;;;;;;;13.48;5.68;;;;;;;16.02;86.68;101084.41;2082989;28;20026;-81
2023/06/08 03:07:49;;;;;;;9.15;6.00;;;;;;;16.03;86.27;101081.38;2074592;28;20165;-81
2023/06/08 03:08:53;;;;;;;9.35;5.80;;;;;;;16.03;86.15;101089.50;2067031;28;20035;-81
2023/06/08 03:09:55;;;;;;;9.77;5.30;;;;;;;16.02;86.01;101095.25;2074561;28;20153;-81
2023/06/08 03:10:59;;;;;;;7.18;5.15;;;;;;;15.99;86.38;101086.59;2082689;28;20116;-81
2023/06/08 03:12:02;;;;;;;11.88;5.63;;;;;;;15.97;86.21;101085.28;2074473;28;20038;-82
2023/06/08 03:13:06;;;;;;;11.38;5.85;;;;;;;16.01;86.50;101093.63;2075641;28;20030;-82
2023/06/08 03:14:10;;;;;;;7.55;5.03;;;;;;;16.01;86.16;101086.28;2073873;28;20069;-81
2023/06/08 03:15:12;;;;;;;7.75;5.13;;;;;;;16.03;86.38;101091.41;2075613;28;20031;-82
2023/06/08 03:16:15;;;;;;;9.60;5.50;;;;;;;16.05;86.49;101083.78;2090777;28;20027;-82
2023/06/08 03:17:17;;;;;;;10.45;5.80;;;;;;;16.12;86.26;101098.53;2074422;28;20932;-81
2023/06/08 03:18:20;;;;;;;11.15;5.78;;;;;;;16.16;86.52;101088.69;2066580;28;20066;-82
2023/06/08 03:19:22;;;;;;;9.48;5.40;;;;;;;16.20;86.33;101087.00;2066543;28;20031;-82
2023/06/08 03:20:27;;;;;;;9.90;5.57;;;;;;;16.25;86.19;101091.50;2081203;28;20068;-82
2023/06/08 03:21:38;;;;;;;10.35;5.60;;;;;;;16.22;85.79;101095.63;2088757;28;20045;-82
2023/06/08 03:22:45;;;;;;;10.10;5.70;;;;;;;16.18;85.84;101088.41;2082674;28;20022;-82
2023/06/08 03:23:48;;;;;;;8.98;6.00;;;;;;;16.19;85.98;101090.00;2082825;28;20030;-82
2023/06/08 03:24:52;;;;;;;7.85;5.10;;;;;;;16.21;85.86;101085.09;2066338;28;20161;-82
2023/06/08 03:25:56;;;;;;;10.30;5.47;;;;;;;16.23;85.62;101088.28;2058788;28;20145;-82
2023/06/08 03:26:59;;;;;;;7.75;5.30;;;;;;;16.24;85.49;101086.38;2074984;28;20834;-83
2023/06/08 03:28:08;;;;;;;9.32;5.28;;;;;;;16.29;85.88;101087.06;2107422;28;20017;-82
2023/06/08 03:29:10;;;;;;;9.02;5.80;;;;;;;16.36;86.02;101090.19;2088227;28;20037;-82
2023/06/08 03:30:14;;;;;;;9.90;5.85;;;;;;;16.38;85.96;101090.66;2075110;28;20119;-82
2023/06/08 03:31:36;;;;;;;8.30;5.20;;;;;;;16.44;85.95;101089.44;2078175;28;20066;-83
2023/06/08 03:32:38;;;;;;;9.40;5.38;;;;;;;16.52;85.79;101092.53;2083616;28;20057;-83
2023/06/08 03:33:42;;;;;;;9.07;5.25;;;;;;;16.52;85.55;101092.53;2082729;28;20072;-83
2023/06/08 03:34:48;;;;;;;8.93;5.20;;;;;;;16.48;85.18;101094.28;2089178;28;20029;-81
2023/06/08 03:35:53;;;;;;;7.15;4.95;;;;;;;16.47;85.20;101090.75;2083343;28;20935;-81
2023/06/08 03:36:57;;;;;;;9.20;5.63;;;;;;;16.47;84.97;101092.69;2075100;28;20960;-81
2023/06/08 03:38:03;;;;;;;7.43;4.90;;;;;;;16.48;84.96;101089.66;2082279;28;20037;-82
2023/06/08 03:39:05;;;;;;;8.98;5.32;;;;;;;16.48;84.92;101097.00;2075337;28;20030;-82
2023/06/08 03:40:09;;;;;;;8.18;5.45;;;;;;;16.48;84.58;101086.13;2074794;28;20041;-82
2023/06/08 03:41:13;;;;;;;10.68;5.07;;;;;;;16.55;84.76;101087.34;2083836;28;20088;-81
2023/06/08 03:42:19;;;;;;;10.10;5.18;;;;;;;16.65;84.42;101091.72;2099325;28;20060;-82
2023/06/08 03:43:25;;;;;;;10.52;5.40;;;;;;;16.66;84.18;101085.97;2082994;28;20132;-82
2023/06/08 03:44:30;;;;;;;10.45;5.70;;;;;;;16.68;84.29;101085.69;2090951;28;20148;-81
2023/06/08 03:45:33;;;;;;;8.32;5.03;;;;;;;16.67;84.59;101084.06;2082864;28;20076;-81
2023/06/08 03:46:36;;;;;;;11.23;5.53;;;;;;;16.61;84.97;101090.72;2091186;28;20025;-82
2023/06/08 03:47:40;;;;;;;9.32;5.85;;;;;;;16.61;85.06;101099.69;2074211;28;20112;-79
2023/06/08 03:48:47;;;;;;;10.20;5.47;;;;;;;16.65;85.49;101083.59;2083694;28;20084;-80
2023/06/08 03:49:48;;;;;;;8.82;5.32;;;;;;;16.68;85.47;101096.56;2091450;28;20108;-81
2023/06/08 03:50:51;;;;;;;8.70;5.57;;;;;;;16.74;85.41;101095.31;2090458;28;20046;-80
2023/06/08 03:51:57;;;;;;;11.35;5.90;;;;;;;16.83;85.19;101098.91;2082833;28;20040;-80
2023/06/08 03:52:59;;;;;;;15.23;7.03;;;;;;;16.93;85.17;101092.47;2083244;28;20014;-79
2023/06/08 03:54:01;;;;;;;10.80;6.07;;;;;;;16.99;85.20;101093.97;2082046;28;20881;-78
2023/06/08 03:55:08;;;;;;;8.85;5.60;;;;;;;17.09;85.22;101093.69;2066365;28;20122;-79
2023/06/08 03:56:10;;;;;;;9.20;5.93;;;;;;;17.12;85.05;101093.09;2076426;28;20956;-82
2023/06/08 03:57:15;;;;;;;13.35;5.82;;;;;;;17.21;85.04;101095.03;2098972;28;20789;-83
2023/06/08 03:58:17;;;;;;;9.90;6.03;;;;;;;17.18;84.85;101091.06;2090533;28;20025;-83
2023/06/08 03:59:21;;;;;;;11.10;5.50;;;;;;;17.18;84.36;101087.50;2090616;28;20061;-80
2023/06/08 04:00:22;;;;;;;11.60;5.82;;;;;;;17.14;84.06;101092.75;2074442;28;20161;-83
2023/06/08 04:01:28;;;;;;;11.50;5.50;;;;;;;17.10;83.67;101097.22;2074777;28;20042;-84
2023/06/08 04:02:31;;;;;;;8.18;5.32;;;;;;;17.19;83.69;101095.38;2073676;28;20038;-81
2023/06/08 04:03:34;;;;;;;9.52;5.25;;;;;;;17.40;83.00;101092.13;2086501;28;20026;-82
2023/06/08 04:04:37;;;;;;;8.70;5.40;;;;;;;17.59;82.42;101082.66;2082056;28;20111;-82
2023/06/08 04:05:39;;;;;;;10.65;5.63;;;;;;;17.73;82.04;101092.63;2079428;28;20068;-81
2023/06/08 04:06:41;;;;;;;11.68;5.13;;;;;;;17.78;82.10;101098.75;2090084;28;20793;-82
2023/06/08 04:07:47;;;;;;;12.55;5.90;;;;;;;17.87;81.96;101092.53;2090316;28;20033;-83
2023/06/08 04:08:51;;;;;;;9.38;5.40;;;;;;;17.95;81.98;101081.69;2082394;28;20140;-84
2023/06/08 04:09:56;;;;;;;9.38;5.15;;;;;;;18.02;81.66;101084.75;2091487;28;20041;-83
2023/06/08 04:11:00;;;;;;;9.50;5.18;;;;;;;18.11;81.35;101087.50;2098649;28;20043;-84
2023/06/08 04:12:02;;;;;;;11.48;5.60;;;;;;;18.23;81.00;101089.59;2084105;28;20169;-84
2023/06/08 04:13:05;;;;;;;9.23;5.35;;;;;;;18.34;80.34;101085.44;2082387;28;20038;-83
2023/06/08 04:14:09;;;;;;;7.00;4.88;;;;;;;18.47;80.02;101080.97;2082098;28;20029;-83
2023/06/08 04:15:11;;;;;;;8.15;4.70;;;;;;;18.61;79.86;101078.91;2082144;28;20037;-84
2023/06/08 04:16:13;;;;;;;9.40;5.45;;;;;;;18.54;80.10;101089.50;2088291;28;20037;-84
2023/06/08 04:17:21;;;;;;;8.48;4.95;;;;;;;18.39;80.09;101087.22;2082342;28;20034;-84
2023/06/08 04:18:22;;;;;;;8.45;4.65;;;;;;;18.45;79.77;101089.47;2082477;28;20144;-82
2023/06/08 04:19:25;;;;;;;13.50;5.25;;;;;;;18.68;79.28;101084.69;2066514;28;20064;-83
2023/06/08 04:20:27;;;;;;;11.68;5.97;;;;;;;18.83;78.53;101082.66;2081369;28;20029;-83
2023/06/08 04:21:33;;;;;;;8.73;5.00;;;;;;;18.96;78.45;101077.00;2090241;28;20110;-82
2023/06/08 04:22:40;;;;;;;11.32;5.30;;;;;;;19.03;78.06;101081.97;2079355;28;20085;-81
2023/06/08 04:23:44;;;;;;;9.27;5.30;;;;;;;18.99;77.65;101078.28;2070245;28;20200;-80
2023/06/08 04:24:47;;;;;;;10.02;5.07;;;;;;;19.01;77.51;101078.78;2082067;28;20026;-81
2023/06/08 04:25:49;;;;;;;8.50;4.95;;;;;;;19.12;77.41;101082.75;2081541;28;20857;-82
2023/06/08 04:26:50;;;;;;;8.65;4.85;;;;;;;19.28;77.36;101079.53;2073943;28;20822;-83
2023/06/08 04:27:52;;;;;;;9.45;5.53;;;;;;;19.44;77.33;101083.31;2089098;28;20029;-84
2023/06/08 04:28:56;;;;;;;8.52;4.75;;;;;;;19.53;76.93;101078.66;2093408;28;20030;-84
2023/06/08 04:30:04;;;;;;;9.60;5.03;;;;;;;19.60;76.63;101084.41;2087622;28;20787;-82
2023/06/08 04:31:08;;;;;;;7.38;4.80;;;;;;;19.69;76.45;101078.94;2076459;28;20064;-84
2023/06/08 04:32:13;;;;;;;10.77;4.90;;;;;;;19.78;76.06;101082.44;2075831;28;20877;-85
2023/06/08 04:33:16;;;;;;;9.07;5.60;;;;;;;19.81;75.98;101079.06;2078935;28;20030;-84
2023/06/08 04:34:21;;;;;;;8.95;5.50;;;;;;;19.81;76.05;101075.53;2078808;28;20030;-83
2023/06/08 04:35:23;;;;;;;8.85;5.05;;;;;;;19.64;75.95;101077.22;2087966;28;20045;-84
2023/06/08 04:36:25;;;;;;;8.40;5.53;;;;;;;19.58;75.83;101081.22;2073740;28;20131;-82
2023/06/08 04:37:28;;;;;;;8.50;5.07;;;;;;;19.60;75.82;101076.22;2072586;28;20042;-84
2023/06/08 04:38:30;;;;;;;8.27;4.68;;;;;;;19.64;75.73;101079.94;2081950;28;20812;-83
2023/06/08 04:39:32;;;;;;;6.60;4.68;;;;;;;19.67;75.49;101078.47;2081734;28;20111;-84
2023/06/08 04:40:36;;;;;;;11.18;4.68;;;;;;;19.74;75.78;101076.03;2090210;28;20017;-83
2023/06/08 04:41:37;;;;;;;7.82;5.00;;;;;;;19.77;75.73;101075.38;2073961;28;20042;-83
2023/06/08 04:42:41;;;;;;;6.50;4.43;;;;;;;19.80;75.95;101074.72;2081871;28;20184;-82
2023/06/08 04:43:45;;;;;;;9.52;5.13;;;;;;;19.85;76.21;101068.28;2085191;28;20033;-82
2023/06/08 04:44:49;;;;;;;8.38;4.55;;;;;;;19.89;76.40;101071.94;2074461;28;20018;-81
2023/06/08 04:45:59;;;;;;;7.10;4.22;;;;;;;19.81;76.37;101075.53;2088963;28;20156;-81
2023/06/08 04:47:07;;;;;;;7.05;4.57;;;;;;;19.78;76.31;101078.91;2083426;28;20100;-81
2023/06/08 04:48:11;;;;;;;5.60;4.38;;;;;;;19.70;75.99;101072.34;2087857;28;20029;-81
2023/06/08 04:49:14;;;;;;;9.45;4.15;;;;;;;19.65;75.74;101078.00;2088684;28;20099;-81
2023/06/08 04:50:17;;;;;;;8.00;4.13;;;;;;;19.67;75.43;101082.00;2089434;28;20048;-82
2023/06/08 04:51:20;;;;;;;6.55;4.57;;;;;;;19.76;75.54;101072.97;2090377;28;20155;-81
2023/06/08 04:52:26;;;;;;;9.48;4.82;;;;;;;19.73;74.70;101074.44;2097864;28;20033;-82
2023/06/08 04:53:35;;;;;;;10.40;5.25;;;;;;;19.75;74.71;101071.38;2089963;28;20776;-79
2023/06/08 04:54:37;;;;;;;10.52;5.00;;;;;;;19.73;74.51;101073.63;2081994;28;20116;-80
2023/06/08 04:55:45;;;;;;;8.07;4.70;;;;;;;19.68;74.39;101078.16;2067191;28;20027;-79
2023/06/08 04:56:47;;;;;;;6.90;4.47;;;;;;;19.74;74.40;101073.31;2068081;28;20838;-79
2023/06/08 04:57:53;;;;;;;8.60;5.13;;;;;;;19.84;74.63;101078.41;2074608;28;20145;-77
2023/06/08 04:58:57;;;;;;;9.48;4.63;;;;;;;19.91;74.66;101069.69;2073557;28;20706;-78
2023/06/08 04:59:59;;;;;;;12.60;5.00;;;;;;;19.93;74.23;101072.09;2082058;28;21007;-77